Chicago Rockford International Airport
KRFD : now visible

Airfield :











YOU CAN JOIN US ON...

 
LOGIN :

Register | Disclaimer

   EN    FR    IT 

 









Legend :    VFR   Marginal VFR   IFR   Intensive IFR   Very Intensive IFR
Visi :
Ceiling :
>= 8 km
>= 3000ft
5 to 8 km
1000 to 3000 ft
1500m to 5 km
500 to 1000 ft
800 to 1500m
200 to 500 ft
< 800m
< 200 ft
Symbols :   Thunderstorms  Fog  Heavy snow  Heavy precipitations  Wind > 20 kt






- Airport Elevation : 742 ft
- IATA code : RFD


KRFD - Chicago Rockford International

CURRENT METAR :
  • 211854Z 16013KT 10SM FEW250 24/08 A3031 RMK AO2 SLP264 T02390083

EXPIRED METARs :
  • 211754Z 19007KT 10SM FEW250 23/09 A3034 RMK AO2 SLP272 T02330089 10233 20089 58019
  • 211654Z 21006KT 10SM FEW250 21/08 A3036 RMK AO2 SLP281 T02110078

TAF KRFD
Valid from the 21 at 18:00 until the 22 at 18:00 UTC


211721Z 2118/2218 21007KT P6SM SCT150
KZAU FIR / North America



MET'MAP, your aeronautical weather chart ! - Copyright ORBIFLY December 2007 - Disclaimer

ORBIFLY MET'MAP TEAM :

Programming & Development : Alexandra Zaïnal
Concept & original design : Baudouin d'Aumeries
Assistance for programming : Marc-Olivier Méhu
Technical & hardware support : Manuel Goepfert

Contact : metmap@orbifly.com




SOURCES & CREDITS :

   NOAA       Earth
Advisory